createdAt,value
2023-01-15T00:02:16.716Z,61.00
2023-01-15T00:04:43.997Z,56.05
2023-01-15T00:07:36.974Z,56.75
2023-01-15T00:10:05.290Z,58.78
2023-01-15T00:12:32.107Z,49.05
2023-01-15T00:14:58.895Z,49.17
2023-01-15T00:17:26.140Z,54.60
2023-01-15T00:19:52.949Z,49.30
2023-01-15T00:22:19.779Z,55.15
2023-01-15T00:25:05.545Z,50.65
2023-01-15T00:27:39.187Z,65.15
2023-01-15T00:30:09.351Z,56.78
2023-01-15T00:32:36.563Z,56.42
2023-01-15T00:35:04.117Z,46.38
2023-01-15T00:37:30.888Z,54.47
2023-01-15T00:39:57.752Z,55.97
2023-01-15T00:42:24.683Z,44.83
2023-01-15T00:44:51.571Z,51.45
2023-01-15T00:47:18.428Z,45.38
2023-01-15T00:49:45.836Z,53.60
2023-01-15T00:52:12.948Z,46.22
2023-01-15T00:54:39.802Z,40.25
2023-01-15T00:57:07.144Z,52.40
2023-01-15T00:59:33.962Z,45.92
2023-01-15T01:02:00.918Z,50.05
2023-01-15T01:04:27.797Z,47.72
2023-01-15T01:06:54.621Z,62.35
2023-01-15T01:09:21.418Z,49.88
2023-01-15T01:11:49.949Z,51.60
2023-01-15T01:14:17.205Z,50.70
2023-01-15T01:16:46.532Z,53.58
2023-01-15T01:19:19.638Z,54.40
2023-01-15T01:21:47.662Z,50.45
2023-01-15T01:24:20.838Z,50.00
2023-01-15T01:26:48.446Z,47.53
2023-01-15T01:29:21.124Z,55.00
2023-01-15T01:31:48.515Z,52.55
2023-01-15T01:34:15.538Z,42.65
2023-01-15T01:36:44.063Z,44.85
2023-01-15T01:39:17.735Z,59.03
2023-01-15T01:41:45.622Z,61.80
2023-01-15T01:44:35.085Z,43.85
2023-01-15T01:47:06.092Z,54.80
2023-01-15T01:49:35.333Z,44.90
2023-01-15T01:52:16.697Z,53.83
2023-01-15T01:54:46.590Z,45.28
2023-01-15T01:57:14.647Z,38.58
2023-01-15T01:59:41.530Z,38.25
2023-01-15T02:02:08.820Z,37.90
2023-01-15T02:04:37.025Z,38.20
2023-01-15T02:07:04.190Z,42.45
2023-01-15T02:09:31.783Z,43.15
2023-01-15T02:12:06.505Z,37.60
2023-01-15T02:14:41.774Z,33.67
2023-01-15T02:17:19.194Z,28.73
2023-01-15T02:20:25.713Z,37.30
2023-01-15T02:23:14.486Z,35.63
2023-01-15T02:26:05.978Z,54.28
2023-01-15T02:28:40.806Z,43.95
2023-01-15T02:31:22.192Z,52.15
2023-01-15T02:39:22.579Z,35.97
2023-01-15T02:41:52.305Z,40.33
2023-01-15T02:44:22.306Z,41.88
2023-01-15T02:46:50.155Z,39.00
2023-01-15T02:49:20.571Z,40.35
2023-01-15T02:51:58.718Z,36.42
2023-01-15T02:54:29.948Z,32.70
2023-01-15T02:57:00.434Z,35.70
2023-01-15T02:59:49.106Z,28.90
2023-01-15T03:02:27.929Z,29.58
2023-01-15T03:05:08.920Z,28.52
2023-01-15T03:07:38.611Z,24.90
2023-01-15T03:10:06.978Z,22.42
2023-01-15T03:13:03.468Z,28.55
2023-01-15T03:15:58.393Z,24.10
2023-01-15T03:18:28.570Z,23.52
2023-01-15T03:21:00.453Z,23.55
2023-01-15T03:23:30.402Z,30.05
2023-01-15T03:25:57.449Z,27.02
2023-01-15T03:28:31.658Z,24.55
2023-01-15T03:30:59.628Z,21.40
2023-01-15T03:33:28.150Z,21.60
2023-01-15T03:35:58.999Z,23.98
2023-01-15T03:38:29.535Z,19.50
2023-01-15T03:41:13.381Z,25.42
2023-01-15T03:47:03.630Z,19.70
2023-01-15T03:49:57.587Z,29.13
2023-01-15T03:52:45.701Z,21.60
2023-01-15T03:55:28.344Z,18.08
2023-01-15T03:58:05.630Z,15.30
2023-01-15T04:00:38.585Z,26.17
2023-01-15T04:03:09.023Z,32.55
2023-01-15T04:05:38.014Z,22.08
2023-01-15T04:08:05.907Z,21.60
2023-01-15T04:10:33.359Z,17.55
2023-01-15T04:13:00.284Z,24.95
2023-01-15T04:15:27.149Z,21.67
2023-01-15T04:17:53.989Z,20.83
2023-01-15T04:20:21.215Z,22.98
2023-01-15T04:22:48.084Z,20.83
2023-01-15T04:25:14.897Z,21.95
2023-01-15T04:27:41.780Z,24.33
2023-01-15T04:30:09.641Z,23.40
2023-01-15T04:32:36.512Z,21.63
2023-01-15T04:35:03.501Z,21.02
2023-01-15T04:37:30.338Z,20.25
2023-01-15T04:39:57.575Z,19.73
2023-01-15T04:42:43.129Z,16.88
2023-01-15T04:45:10.593Z,15.65
2023-01-15T04:47:37.401Z,23.38
2023-01-15T04:50:04.319Z,16.63
2023-01-15T04:52:31.107Z,21.10
2023-01-15T04:54:58.102Z,18.80
2023-01-15T04:57:24.874Z,17.02
2023-01-15T04:59:52.063Z,19.38
2023-01-15T05:02:19.031Z,18.55
2023-01-15T05:04:46.386Z,19.33
2023-01-15T05:07:13.305Z,20.15
2023-01-15T05:09:40.561Z,25.27
2023-01-15T05:12:09.563Z,20.80
2023-01-15T05:14:36.459Z,20.55
2023-01-15T05:17:03.382Z,19.35
2023-01-15T05:19:30.582Z,19.08
2023-01-15T05:21:57.813Z,23.98
2023-01-15T05:24:25.108Z,27.17
2023-01-15T05:26:51.966Z,23.17
2023-01-15T05:29:18.740Z,28.40
2023-01-15T05:31:46.066Z,21.63
2023-01-15T05:34:13.335Z,28.08
2023-01-15T05:36:40.297Z,23.05
2023-01-15T05:39:07.648Z,20.73
2023-01-15T05:41:49.596Z,21.90
2023-01-15T05:44:20.884Z,19.75
2023-01-15T05:46:48.820Z,22.75
2023-01-15T05:49:20.283Z,23.15
2023-01-15T05:51:47.632Z,16.85
2023-01-15T05:54:18.080Z,21.90
2023-01-15T05:56:45.864Z,17.83
2023-01-15T05:59:13.811Z,16.90
2023-01-15T06:01:40.967Z,18.98
2023-01-15T06:04:08.533Z,18.27
2023-01-15T06:06:36.288Z,18.35
2023-01-15T06:09:04.921Z,20.23
2023-01-15T06:11:32.264Z,18.88
2023-01-15T06:13:59.957Z,24.70
2023-01-15T06:16:27.075Z,25.35
2023-01-15T06:18:54.215Z,30.33
2023-01-15T06:21:21.188Z,28.73
2023-01-15T06:23:48.080Z,37.80
2023-01-15T06:26:18.366Z,29.52
2023-01-15T06:28:47.096Z,25.00
2023-01-15T06:31:16.754Z,24.10
2023-01-15T06:33:44.260Z,22.67
2023-01-15T06:36:17.454Z,18.10
2023-01-15T06:38:45.378Z,28.17
2023-01-15T06:41:39.928Z,23.83
2023-01-15T06:44:29.185Z,21.70
2023-01-15T06:47:15.120Z,19.27
2023-01-15T06:49:42.191Z,32.90
2023-01-15T06:52:09.126Z,29.35
2023-01-15T06:54:36.065Z,18.98
2023-01-15T06:57:03.422Z,25.00
2023-01-15T06:59:30.787Z,20.50
2023-01-15T07:02:00.833Z,34.53
2023-01-15T07:04:28.364Z,28.90
2023-01-15T07:06:55.322Z,35.70
2023-01-15T07:09:22.609Z,19.58
2023-01-15T07:11:49.784Z,29.95
2023-01-15T07:14:21.713Z,32.95
2023-01-15T07:16:52.680Z,24.42
2023-01-15T07:19:20.428Z,25.73
2023-01-15T07:21:47.805Z,33.20
2023-01-15T07:24:17.451Z,22.60
2023-01-15T07:26:45.463Z,28.77
2023-01-15T07:29:13.343Z,37.05
2023-01-15T07:31:40.906Z,37.00
2023-01-15T07:34:07.852Z,22.35
2023-01-15T07:36:34.790Z,28.48
2023-01-15T07:39:04.480Z,22.02
2023-01-15T07:41:49.810Z,25.67
2023-01-15T07:44:35.520Z,20.75
2023-01-15T07:47:21.974Z,24.30
2023-01-15T07:49:49.842Z,22.20
2023-01-15T07:52:19.523Z,26.02
2023-01-15T07:54:48.443Z,30.92
2023-01-15T07:57:19.111Z,30.98
2023-01-15T07:59:45.994Z,32.63
2023-01-15T08:02:13.314Z,25.50
2023-01-15T08:04:40.356Z,32.38
2023-01-15T08:07:08.331Z,26.45
2023-01-15T08:09:35.826Z,27.50
2023-01-15T08:12:23.964Z,29.58
2023-01-15T08:15:09.634Z,33.95
2023-01-15T08:17:37.671Z,32.47
2023-01-15T08:20:07.140Z,36.67
2023-01-15T08:22:34.039Z,33.03
2023-01-15T08:25:01.012Z,30.63
2023-01-15T08:27:29.064Z,22.67
2023-01-15T08:29:56.886Z,21.50
2023-01-15T08:32:25.193Z,21.60
2023-01-15T08:34:52.173Z,22.67
2023-01-15T08:37:19.046Z,23.77
2023-01-15T08:39:46.268Z,23.00
2023-01-15T08:42:13.544Z,21.80
2023-01-15T08:44:40.351Z,21.33
2023-01-15T08:47:07.614Z,19.08
2023-01-15T08:49:34.867Z,24.30
2023-01-15T08:52:02.121Z,30.17
2023-01-15T08:54:29.687Z,25.95
2023-01-15T08:56:56.636Z,26.40
2023-01-15T08:59:23.581Z,25.40
2023-01-15T09:01:50.520Z,26.58
2023-01-15T09:04:20.135Z,21.23
2023-01-15T09:09:34.465Z,24.50
2023-01-15T09:12:02.179Z,25.85
2023-01-15T09:14:57.861Z,23.33
2023-01-15T09:17:16.822Z,24.98
2023-01-15T09:19:43.640Z,20.63
2023-01-15T09:22:10.431Z,18.55
2023-01-15T09:24:37.471Z,18.17
2023-01-15T09:27:04.743Z,20.25
2023-01-15T09:29:31.587Z,20.00
2023-01-15T09:31:58.401Z,20.17
2023-01-15T09:34:25.450Z,18.92
2023-01-15T09:36:52.747Z,19.10
2023-01-15T09:39:19.959Z,15.20
2023-01-15T09:42:08.598Z,23.08
2023-01-15T09:44:50.699Z,17.58
2023-01-15T09:47:30.296Z,15.20
2023-01-15T09:50:21.521Z,19.42
2023-01-15T09:53:10.711Z,14.07
2023-01-15T09:55:46.146Z,16.42
2023-01-15T09:58:16.782Z,15.05
2023-01-15T10:00:51.985Z,13.20
2023-01-15T10:03:45.836Z,12.77
2023-01-15T10:06:26.447Z,13.80
2023-01-15T10:09:20.768Z,14.10
2023-01-15T10:12:21.181Z,11.23
2023-01-15T10:14:54.582Z,18.77
2023-01-15T10:17:27.268Z,12.43
2023-01-15T10:19:55.297Z,14.57
2023-01-15T10:22:48.656Z,17.08
2023-01-15T10:25:19.644Z,16.52
2023-01-15T10:27:51.842Z,18.05
2023-01-15T10:30:32.089Z,17.73
2023-01-15T10:33:12.395Z,21.85
2023-01-15T10:35:59.799Z,18.00
2023-01-15T10:38:35.133Z,22.60
2023-01-15T10:41:20.125Z,18.40
2023-01-15T10:44:22.228Z,24.40
2023-01-15T10:46:59.053Z,24.55
2023-01-15T10:49:30.970Z,27.17
2023-01-15T10:52:21.369Z,18.27
2023-01-15T10:54:57.605Z,27.42
2023-01-15T10:57:44.233Z,20.52
2023-01-15T11:00:12.268Z,23.30
2023-01-15T11:03:08.336Z,24.83
2023-01-15T11:05:36.508Z,18.77
2023-01-15T11:08:39.367Z,16.38
2023-01-15T11:10:53.617Z,14.52
2023-01-15T11:13:44.389Z,18.67
2023-01-15T11:16:34.724Z,15.10
2023-01-15T11:19:25.781Z,15.60
2023-01-15T11:21:54.159Z,15.68
2023-01-15T11:24:21.141Z,11.07
2023-01-15T11:26:51.498Z,11.07
2023-01-15T11:29:37.484Z,16.58
2023-01-15T11:32:04.514Z,14.18
2023-01-15T11:34:31.411Z,9.48
2023-01-15T11:37:03.330Z,8.75
2023-01-15T11:39:31.518Z,11.48
2023-01-15T11:42:19.075Z,15.45
2023-01-15T11:45:12.808Z,11.98
2023-01-15T11:47:58.321Z,12.73
2023-01-15T11:50:43.768Z,14.05
2023-01-15T11:53:19.898Z,8.85
2023-01-15T11:56:02.394Z,7.32
2023-01-15T11:58:33.968Z,3.22
2023-01-15T12:01:02.144Z,6.43
2023-01-15T12:03:31.913Z,10.32
2023-01-15T12:06:05.722Z,3.03
2023-01-15T12:08:42.160Z,1.67
2023-01-15T12:11:53.433Z,1.30
2023-01-15T12:14:44.946Z,2.17
2023-01-15T12:17:17.859Z,0.80
2023-01-15T12:19:51.017Z,1.17
2023-01-15T12:22:29.952Z,1.15
2023-01-15T12:25:38.790Z,2.83
2023-01-15T12:28:24.569Z,0.82
2023-01-15T12:31:33.274Z,1.45
2023-01-15T12:34:20.609Z,1.52
2023-01-15T12:36:58.312Z,1.88
2023-01-15T12:39:46.011Z,0.95
2023-01-15T12:42:37.537Z,1.35
2023-01-15T12:45:11.611Z,1.52
2023-01-15T12:48:08.235Z,3.58
2023-01-15T12:50:45.348Z,1.10
2023-01-15T12:53:43.493Z,0.93
2023-01-15T12:56:26.115Z,3.97
2023-01-15T12:59:08.168Z,2.08
2023-01-15T13:01:56.679Z,1.65
2023-01-15T13:04:37.799Z,1.50
2023-01-15T13:07:29.465Z,0.77
2023-01-15T13:10:08.646Z,1.85
2023-01-15T13:12:35.654Z,1.02
2023-01-15T13:15:04.385Z,1.15
2023-01-15T13:17:37.195Z,1.23
2023-01-15T13:20:15.733Z,1.55
2023-01-15T13:23:04.827Z,2.05
2023-01-15T13:26:01.450Z,1.23
2023-01-15T13:28:52.344Z,0.98
2023-01-15T13:31:25.088Z,1.13
2023-01-15T13:33:55.914Z,3.90
2023-01-15T13:36:33.019Z,1.05
2023-01-15T13:39:03.333Z,2.83
2023-01-15T13:44:24.250Z,1.50
2023-01-15T13:47:12.993Z,2.20
2023-01-15T13:49:47.260Z,0.90
2023-01-15T13:52:30.315Z,1.38
2023-01-15T13:55:20.680Z,1.10
2023-01-15T14:21:19.159Z,3.78
2023-01-15T14:24:16.236Z,2.35
2023-01-15T14:26:54.892Z,2.22
2023-01-15T14:29:40.814Z,1.83
2023-01-15T14:32:35.475Z,2.47
2023-01-15T14:35:03.449Z,1.77
2023-01-15T14:37:49.589Z,1.52
2023-01-15T14:40:36.020Z,1.48
2023-01-15T14:43:13.962Z,1.88
2023-01-15T14:45:47.876Z,1.60
2023-01-15T14:54:19.846Z,4.40
2023-01-15T15:18:06.277Z,6.60
2023-01-15T15:21:03.014Z,6.70
2023-01-15T15:23:48.063Z,5.47
2023-01-15T15:26:28.547Z,5.53
2023-01-15T15:29:17.306Z,5.80
2023-01-15T15:32:00.149Z,6.50
2023-01-15T15:37:25.231Z,5.22
2023-01-15T15:40:14.933Z,3.88
2023-01-15T15:43:17.301Z,4.03
2023-01-15T15:46:11.410Z,4.95
2023-01-15T15:48:42.120Z,5.63
2023-01-15T15:51:42.528Z,5.03
2023-01-15T15:54:29.711Z,4.93
2023-01-15T16:13:01.213Z,18.42
2023-01-15T16:15:31.018Z,9.43
2023-01-15T16:17:59.399Z,5.18
2023-01-15T16:20:26.963Z,6.30
2023-01-15T16:22:56.042Z,6.88
2023-01-15T16:25:38.757Z,3.83
2023-01-15T16:28:05.815Z,4.68
2023-01-15T16:30:33.684Z,2.55
2023-01-15T16:33:06.225Z,2.30
2023-01-15T16:35:37.411Z,2.95
2023-01-15T16:38:07.392Z,2.45
2023-01-15T16:40:39.837Z,2.03
2023-01-15T16:43:11.421Z,1.77
2023-01-15T16:46:03.786Z,2.85
2023-01-15T16:48:38.561Z,1.83
2023-01-15T16:51:36.349Z,2.78
2023-01-15T16:54:05.939Z,3.05
2023-01-15T16:56:37.412Z,4.25
2023-01-15T16:59:14.016Z,3.63
2023-01-15T17:01:48.117Z,2.22
2023-01-15T17:04:27.507Z,2.70
2023-01-15T17:07:02.836Z,2.95
2023-01-15T17:09:33.805Z,4.13
2023-01-15T17:12:06.482Z,3.53
2023-01-15T17:14:33.258Z,5.03
2023-01-15T17:17:27.120Z,2.80
2023-01-15T17:19:56.188Z,6.40
2023-01-15T17:22:31.525Z,2.53
2023-01-15T17:25:00.892Z,2.75
2023-01-15T17:27:29.831Z,2.78
2023-01-15T17:29:56.840Z,1.92
2023-01-15T17:32:31.809Z,2.03
2023-01-15T17:34:58.721Z,2.05
2023-01-15T17:37:25.519Z,2.45
2023-01-15T17:39:52.270Z,4.32
2023-01-15T17:42:20.231Z,2.45
2023-01-15T17:44:47.509Z,3.10
2023-01-15T17:47:14.519Z,1.05
2023-01-15T17:49:41.349Z,2.97
2023-01-15T17:52:16.630Z,1.52
2023-01-15T17:55:02.242Z,3.55
2023-01-15T17:57:47.982Z,1.48
2023-01-15T18:00:33.697Z,2.13
2023-01-15T18:03:19.362Z,1.85
2023-01-15T18:05:51.094Z,2.70
2023-01-15T18:08:18.867Z,1.45
2023-01-15T18:10:45.807Z,2.00
2023-01-15T18:13:13.095Z,4.25
2023-01-15T18:15:40.964Z,2.17
2023-01-15T18:18:07.752Z,3.08
2023-01-15T18:20:34.690Z,2.38
2023-01-15T18:23:01.933Z,2.17
2023-01-15T18:25:28.753Z,3.08
2023-01-15T18:27:55.528Z,4.18
2023-01-15T18:30:22.383Z,3.13
2023-01-15T18:32:49.405Z,3.58
2023-01-15T18:35:17.308Z,1.85
2023-01-15T18:37:44.722Z,2.17
2023-01-15T18:40:12.163Z,1.48
2023-01-15T18:42:58.081Z,2.80
2023-01-15T18:45:43.497Z,1.63
2023-01-15T18:48:10.533Z,2.20
2023-01-15T18:50:37.543Z,3.97
2023-01-15T18:53:04.773Z,3.92
2023-01-15T18:55:31.691Z,2.63
2023-01-15T18:57:58.779Z,2.28
2023-01-15T19:00:26.047Z,3.15
2023-01-15T19:02:53.046Z,3.08
2023-01-15T19:05:20.375Z,5.97
2023-01-15T19:07:47.611Z,1.65
2023-01-15T19:10:16.526Z,2.22
2023-01-15T19:12:44.816Z,2.63
2023-01-15T19:18:37.480Z,2.15
2023-01-15T19:21:10.265Z,1.83
2023-01-15T19:29:08.051Z,3.08
2023-01-15T19:34:33.265Z,2.17
2023-01-15T19:36:59.763Z,2.13
2023-01-15T19:39:28.128Z,2.08
2023-01-15T19:42:14.923Z,1.52
2023-01-15T19:45:01.194Z,1.92
2023-01-15T19:47:53.767Z,1.88
2023-01-15T19:50:40.493Z,2.35
2023-01-15T19:53:09.446Z,2.03
2023-01-15T19:55:40.827Z,1.77
2023-01-15T20:01:20.342Z,1.52
2023-01-15T20:06:23.110Z,1.80
2023-01-15T20:08:50.149Z,2.28
2023-01-15T20:11:16.945Z,2.78
2023-01-15T20:13:51.693Z,1.33
2023-01-15T20:16:22.354Z,2.30
2023-01-15T20:18:50.459Z,1.40
2023-01-15T20:21:18.396Z,1.75
2023-01-15T20:23:45.332Z,1.77
2023-01-15T20:26:14.824Z,3.00
2023-01-15T20:28:42.783Z,2.67
2023-01-15T20:31:18.287Z,2.28
2023-01-15T20:33:46.136Z,1.88
2023-01-15T20:41:52.352Z,1.92
2023-01-15T20:44:38.036Z,2.42
2023-01-15T20:47:25.024Z,0.75
2023-01-15T20:49:52.276Z,1.30
2023-01-15T20:52:20.000Z,2.05
2023-01-15T20:54:47.462Z,1.25
2023-01-15T21:02:45.823Z,1.52
2023-01-15T21:05:13.438Z,1.60
2023-01-15T21:07:40.687Z,1.38
2023-01-15T21:12:48.685Z,1.02
2023-01-15T21:15:15.547Z,0.57
2023-01-15T21:17:42.394Z,2.00
2023-01-15T21:20:12.251Z,2.15
2023-01-15T21:22:39.400Z,1.42
2023-01-15T21:25:09.755Z,1.90
2023-01-15T21:27:37.700Z,0.90
2023-01-15T21:35:39.558Z,3.40
2023-01-15T21:38:10.547Z,1.77
2023-01-15T21:40:38.017Z,0.93
2023-01-15T21:43:24.537Z,1.00
2023-01-15T21:48:27.212Z,1.65
2023-01-15T21:50:54.088Z,2.25
2023-01-15T21:53:20.930Z,1.90
2023-01-15T21:55:52.177Z,2.05
2023-01-15T21:58:19.023Z,1.52
2023-01-15T22:00:49.331Z,1.55
2023-01-15T22:03:17.982Z,1.98
2023-01-15T22:05:45.549Z,3.53
2023-01-15T22:08:12.763Z,4.32
2023-01-15T22:10:39.585Z,1.98
2023-01-15T22:13:06.451Z,1.77
2023-01-15T22:15:33.327Z,2.60
2023-01-15T22:18:00.645Z,2.38
2023-01-15T22:20:27.909Z,3.95
2023-01-15T22:22:54.680Z,2.25
2023-01-15T22:25:21.647Z,1.73
2023-01-15T22:27:48.475Z,1.10
2023-01-15T22:30:16.659Z,1.70
2023-01-15T22:32:43.675Z,3.65
2023-01-15T22:35:10.736Z,2.22
2023-01-15T22:37:37.563Z,1.80
2023-01-15T22:40:05.309Z,2.67
2023-01-15T22:42:33.071Z,2.03
2023-01-15T22:45:00.909Z,3.13
2023-01-15T22:47:29.346Z,11.38
2023-01-15T22:49:57.099Z,18.33
2023-01-15T22:52:25.869Z,11.93
2023-01-15T22:54:53.737Z,10.23
2023-01-15T22:57:20.723Z,5.13
2023-01-15T22:59:47.624Z,6.30
2023-01-15T23:02:14.614Z,14.23
2023-01-15T23:04:42.049Z,13.95
2023-01-15T23:07:09.796Z,12.15
2023-01-15T23:09:36.728Z,15.27
2023-01-15T23:12:04.151Z,9.73
2023-01-15T23:14:31.604Z,11.25
2023-01-15T23:16:58.498Z,14.20
2023-01-15T23:19:28.012Z,16.65
2023-01-15T23:21:55.671Z,15.35
2023-01-15T23:24:23.066Z,16.13
2023-01-15T23:26:49.891Z,13.98
2023-01-15T23:29:17.128Z,14.20
2023-01-15T23:31:43.977Z,15.93
2023-01-15T23:34:11.365Z,18.95
2023-01-15T23:36:38.532Z,11.25
2023-01-15T23:39:05.798Z,14.95
2023-01-15T23:41:55.577Z,13.90
2023-01-15T23:44:41.491Z,13.68
2023-01-15T23:47:08.592Z,11.68
2023-01-15T23:49:35.947Z,14.88
2023-01-15T23:52:03.289Z,16.48
2023-01-15T23:54:31.472Z,17.45
2023-01-15T23:57:00.274Z,12.98
2023-01-15T23:59:28.268Z,11.07
